createdAt,value
2018-01-06T00:01:00.029Z,81.96
2018-01-06T00:03:31.572Z,81.71
2018-01-06T00:06:05.673Z,81.87
2018-01-06T00:08:35.440Z,80.76
2018-01-06T00:11:22.579Z,81.25
2018-01-06T00:14:21.547Z,80.83
2018-01-06T00:16:59.385Z,81.84
2018-01-06T00:19:29.287Z,81.15
2018-01-06T00:22:19.646Z,81.09
2018-01-06T00:24:55.480Z,81.23
2018-01-06T00:27:29.066Z,81.15
2018-01-06T00:30:00.683Z,80.52
2018-01-06T00:32:32.074Z,80.93
2018-01-06T00:35:14.701Z,80.35
2018-01-06T00:38:57.781Z,80.23
2018-01-06T00:41:28.071Z,80.55
2018-01-06T00:43:58.736Z,80.02
2018-01-06T00:46:28.956Z,80.31
2018-01-06T00:48:58.667Z,80.23
2018-01-06T00:51:28.538Z,80.50
2018-01-06T00:53:58.567Z,79.71
2018-01-06T00:59:20.592Z,79.99
2018-01-06T01:01:53.211Z,79.31
2018-01-06T01:04:22.910Z,79.46
2018-01-06T01:06:53.123Z,79.40
2018-01-06T01:09:22.805Z,80.22
2018-01-06T01:11:52.743Z,80.19
2018-01-06T01:14:22.740Z,80.35
2018-01-06T01:16:52.868Z,81.01
2018-01-06T01:19:24.162Z,81.31
2018-01-06T01:21:53.947Z,80.87
2018-01-06T01:24:24.393Z,79.72
2018-01-06T01:26:55.929Z,80.50
2018-01-06T01:29:27.775Z,81.04
2018-01-06T01:32:21.790Z,81.01
2018-01-06T01:34:51.983Z,81.29
2018-01-06T01:37:21.743Z,81.49
2018-01-06T01:39:53.225Z,81.47
2018-01-06T01:42:31.854Z,81.01
2018-01-06T01:45:19.889Z,80.92
2018-01-06T01:47:49.660Z,80.81
2018-01-06T01:50:19.636Z,80.96
2018-01-06T01:52:49.707Z,80.78
2018-01-06T01:55:19.341Z,81.14
2018-01-06T01:57:49.033Z,80.98
2018-01-06T02:07:48.064Z,81.34
2018-01-06T02:10:17.900Z,85.15
2018-01-06T02:12:48.965Z,85.91
2018-01-06T02:15:18.621Z,86.84
2018-01-06T02:17:49.204Z,88.77
2018-01-06T02:20:19.571Z,87.20
2018-01-06T02:22:49.462Z,87.91
2018-01-06T02:25:19.602Z,88.18
2018-01-06T02:27:49.464Z,87.51
2018-01-06T02:30:19.394Z,87.76
2018-01-06T02:32:48.802Z,88.71
2018-01-06T02:35:18.794Z,88.16
2018-01-06T02:37:48.722Z,88.65
2018-01-06T02:40:19.104Z,87.65
2018-01-06T02:42:48.670Z,86.72
2018-01-06T02:45:18.338Z,86.54
2018-01-06T02:47:50.127Z,86.21
2018-01-06T02:50:20.357Z,86.32
2018-01-06T02:52:49.856Z,86.03
2018-01-06T02:55:20.329Z,86.22
2018-01-06T02:57:51.627Z,85.71
2018-01-06T03:00:23.641Z,85.16
2018-01-06T03:02:55.062Z,84.86
2018-01-06T03:05:25.177Z,85.38
2018-01-06T03:11:16.686Z,85.89
2018-01-06T03:13:46.792Z,85.26
2018-01-06T03:16:20.268Z,85.65
2018-01-06T03:18:50.484Z,85.75
2018-01-06T03:21:21.124Z,86.27
2018-01-06T03:23:59.751Z,88.64
2018-01-06T03:26:29.514Z,87.77
2018-01-06T03:29:01.924Z,86.35
2018-01-06T03:31:31.604Z,86.03
2018-01-06T03:34:01.962Z,85.91
2018-01-06T03:36:31.605Z,85.66
2018-01-06T03:39:01.629Z,86.30
2018-01-06T03:41:31.382Z,85.92
2018-01-06T03:44:02.644Z,85.79
2018-01-06T03:46:32.404Z,85.37
2018-01-06T03:49:02.365Z,85.76
2018-01-06T03:51:32.360Z,86.16
2018-01-06T03:54:02.931Z,86.08
2018-01-06T03:56:34.521Z,85.96
2018-01-06T03:59:04.187Z,84.78
2018-01-06T04:01:38.701Z,86.18
2018-01-06T04:04:08.306Z,85.45
2018-01-06T04:06:38.548Z,85.48
2018-01-06T04:09:08.737Z,85.43
2018-01-06T04:11:40.766Z,84.21
2018-01-06T04:14:10.523Z,84.79
2018-01-06T04:16:43.039Z,84.81
2018-01-06T04:19:12.699Z,84.81
2018-01-06T04:21:42.505Z,84.44
2018-01-06T04:24:13.693Z,83.85
2018-01-06T04:26:44.297Z,83.38
2018-01-06T04:29:16.398Z,83.74
2018-01-06T04:31:48.129Z,84.41
2018-01-06T04:34:17.661Z,83.95
2018-01-06T04:36:47.337Z,83.73
2018-01-06T04:39:17.456Z,83.32
2018-01-06T04:41:50.466Z,83.04
2018-01-06T04:44:23.641Z,82.76
2018-01-06T04:46:54.210Z,82.60
2018-01-06T04:49:24.418Z,83.64
2018-01-06T04:51:58.736Z,83.01
2018-01-06T04:54:28.569Z,83.12
2018-01-06T04:57:00.276Z,82.78
2018-01-06T04:59:30.159Z,83.10
2018-01-06T05:02:02.277Z,83.34
2018-01-06T05:04:32.549Z,82.63
2018-01-06T05:07:02.927Z,83.17
2018-01-06T05:09:32.516Z,82.89
2018-01-06T05:12:02.078Z,83.32
2018-01-06T05:14:34.386Z,84.16
2018-01-06T05:17:04.698Z,83.53
2018-01-06T05:19:37.048Z,82.58
2018-01-06T05:22:08.739Z,82.16
2018-01-06T05:24:38.811Z,83.82
2018-01-06T05:27:09.116Z,84.82
2018-01-06T05:29:41.617Z,85.10
2018-01-06T05:32:11.112Z,85.59
2018-01-06T05:34:43.439Z,84.97
2018-01-06T05:37:14.082Z,84.79
2018-01-06T05:39:43.597Z,86.34
2018-01-06T05:42:13.112Z,84.56
2018-01-06T05:44:44.649Z,84.47
2018-01-06T05:47:17.619Z,88.32
2018-01-06T05:49:47.350Z,87.08
2018-01-06T05:52:17.451Z,85.32
2018-01-06T05:54:56.852Z,84.41
2018-01-06T05:57:26.499Z,84.37
2018-01-06T05:59:59.682Z,87.07
2018-01-06T06:02:29.462Z,87.88
2018-01-06T06:05:00.187Z,86.39
2018-01-06T06:07:31.434Z,86.71
2018-01-06T06:10:05.483Z,84.35
2018-01-06T06:12:37.608Z,83.90
2018-01-06T06:15:09.833Z,83.42
2018-01-06T06:17:44.217Z,84.94
2018-01-06T06:20:21.417Z,84.10
2018-01-06T06:22:56.939Z,83.12
2018-01-06T06:25:31.757Z,82.74
2018-01-06T06:28:06.241Z,83.30
2018-01-06T06:30:42.771Z,82.38
2018-01-06T06:33:13.462Z,86.79
2018-01-06T06:35:45.999Z,87.69
2018-01-06T06:38:20.183Z,85.05
2018-01-06T06:40:52.351Z,83.52
2018-01-06T06:43:26.491Z,83.07
2018-01-06T06:45:56.315Z,84.24
2018-01-06T06:48:26.960Z,91.58
2018-01-06T06:50:57.192Z,89.05
2018-01-06T06:53:28.866Z,86.62
2018-01-06T06:55:59.264Z,90.23
2018-01-06T06:58:30.838Z,89.32
2018-01-06T07:01:07.351Z,87.79
2018-01-06T07:03:39.737Z,86.13
2018-01-06T07:06:11.106Z,89.01
2018-01-06T07:08:48.618Z,86.51
2018-01-06T07:11:18.381Z,87.06
2018-01-06T07:13:49.661Z,85.37
2018-01-06T07:16:23.864Z,85.17
2018-01-06T07:18:57.731Z,87.29
2018-01-06T07:21:36.054Z,85.50
2018-01-06T07:24:25.388Z,83.90
2018-01-06T07:26:59.606Z,85.58
2018-01-06T07:29:29.964Z,84.07
2018-01-06T07:32:02.626Z,85.61
2018-01-06T07:34:32.756Z,87.10
2018-01-06T07:37:02.591Z,89.31
2018-01-06T07:39:34.748Z,89.98
2018-01-06T07:42:04.997Z,90.74
2018-01-06T07:44:36.356Z,92.03
2018-01-06T07:47:07.892Z,90.74
2018-01-06T07:49:47.303Z,88.31
2018-01-06T07:52:17.944Z,90.44
2018-01-06T07:54:53.433Z,88.29
2018-01-06T07:57:23.208Z,86.27
2018-01-06T07:59:58.558Z,89.15
2018-01-06T08:02:36.393Z,86.58
2018-01-06T08:05:07.243Z,85.57
2018-01-06T08:07:42.312Z,84.55
2018-01-06T08:10:15.586Z,84.12
2018-01-06T08:12:52.019Z,84.45
2018-01-06T08:15:25.419Z,84.42
2018-01-06T08:17:55.728Z,84.06
2018-01-06T08:20:26.842Z,83.89
2018-01-06T08:22:58.531Z,84.32
2018-01-06T08:25:32.474Z,84.07
2018-01-06T08:28:04.652Z,83.71
2018-01-06T08:30:37.005Z,83.00
2018-01-06T08:33:11.964Z,83.02
2018-01-06T08:35:43.781Z,83.65
2018-01-06T08:38:17.760Z,84.14
2018-01-06T08:40:51.446Z,82.61
2018-01-06T08:43:22.282Z,83.17
2018-01-06T08:45:53.697Z,84.18
2018-01-06T08:48:25.233Z,83.59
2018-01-06T08:50:58.798Z,83.42
2018-01-06T08:53:34.599Z,81.63
2018-01-06T08:56:08.018Z,82.52
2018-01-06T08:58:41.533Z,82.96
2018-01-06T09:01:14.113Z,82.27
2018-01-06T09:03:47.147Z,83.23
2018-01-06T09:06:19.632Z,81.70
2018-01-06T09:08:52.611Z,81.48
2018-01-06T09:11:22.749Z,81.94
2018-01-06T09:13:52.575Z,81.50
2018-01-06T09:16:23.025Z,80.90
2018-01-06T09:18:53.584Z,80.48
2018-01-06T09:21:24.883Z,80.11
2018-01-06T09:23:56.536Z,80.64
2018-01-06T09:26:28.208Z,81.15
2018-01-06T09:28:58.597Z,80.96
2018-01-06T09:36:28.783Z,81.90
2018-01-06T09:39:10.342Z,81.02
2018-01-06T09:41:50.380Z,79.19
2018-01-06T09:44:36.374Z,81.40
2018-01-06T09:47:27.575Z,81.21
2018-01-06T09:49:58.689Z,78.18
2018-01-06T09:52:36.564Z,77.12
2018-01-06T09:55:18.432Z,77.82
2018-01-06T09:57:49.945Z,77.86
2018-01-06T10:00:32.593Z,77.51
2018-01-06T10:03:17.063Z,78.18
2018-01-06T10:05:47.389Z,77.50
2018-01-06T10:08:17.230Z,78.03
2018-01-06T10:10:47.904Z,78.18
2018-01-06T10:13:18.687Z,78.51
2018-01-06T10:15:48.242Z,76.89
2018-01-06T10:18:19.883Z,77.58
2018-01-06T10:20:50.145Z,77.75
2018-01-06T10:23:20.071Z,77.78
2018-01-06T10:25:51.807Z,78.52
2018-01-06T10:28:21.614Z,77.51
2018-01-06T10:30:51.193Z,77.71
2018-01-06T10:33:21.215Z,76.64
2018-01-06T10:35:55.386Z,75.99
2018-01-06T10:38:25.864Z,76.42
2018-01-06T10:40:56.075Z,76.68
2018-01-06T10:43:25.874Z,76.08
2018-01-06T10:45:56.749Z,77.49
2018-01-06T10:48:27.754Z,79.15
2018-01-06T10:50:57.668Z,79.38
2018-01-06T10:53:28.352Z,79.70
2018-01-06T10:55:58.110Z,76.79
2018-01-06T10:58:27.913Z,76.65
2018-01-06T11:01:23.770Z,79.56
2018-01-06T11:04:06.796Z,79.94
2018-01-06T11:06:50.816Z,77.59
2018-01-06T11:09:41.174Z,77.71
2018-01-06T11:12:17.099Z,77.56
2018-01-06T11:14:52.666Z,76.35
2018-01-06T11:20:46.579Z,76.64
2018-01-06T11:23:25.674Z,74.72
2018-01-06T11:26:01.368Z,73.98
2018-01-06T11:28:31.409Z,75.25
2018-01-06T11:31:11.360Z,74.15
2018-01-06T11:33:43.014Z,73.90
2018-01-06T11:36:17.562Z,72.68
2018-01-06T11:38:49.882Z,71.78
2018-01-06T11:41:30.317Z,71.73
2018-01-06T11:44:02.707Z,72.50
2018-01-06T11:46:33.093Z,72.68
2018-01-06T11:49:03.029Z,71.93
2018-01-06T11:51:33.461Z,71.59
2018-01-06T11:54:05.303Z,71.15
2018-01-06T11:56:35.228Z,71.57
2018-01-06T11:59:05.099Z,73.53
2018-01-06T12:01:36.056Z,73.57
2018-01-06T12:04:06.203Z,75.10
2018-01-06T12:06:36.181Z,76.49
2018-01-06T12:09:06.590Z,79.26
2018-01-06T12:11:39.124Z,81.18
2018-01-06T12:14:11.158Z,81.71
2018-01-06T12:16:41.133Z,80.13
2018-01-06T12:19:11.134Z,81.51
2018-01-06T12:22:25.278Z,82.65
2018-01-06T12:24:57.800Z,82.12
2018-01-06T12:27:30.232Z,82.45
2018-01-06T12:30:02.849Z,83.13
2018-01-06T12:32:37.175Z,84.39
2018-01-06T12:35:09.457Z,84.79
2018-01-06T12:37:43.223Z,85.03
2018-01-06T12:40:13.699Z,84.57
2018-01-06T12:42:43.531Z,85.69
2018-01-06T12:45:18.922Z,85.96
2018-01-06T12:47:49.967Z,85.85
2018-01-06T12:50:21.685Z,85.19
2018-01-06T12:52:54.405Z,85.06
2018-01-06T12:55:26.164Z,84.78
2018-01-06T12:57:58.409Z,83.68
2018-01-06T13:00:29.683Z,83.36
2018-01-06T13:03:01.120Z,83.87
2018-01-06T13:05:32.589Z,82.25
2018-01-06T13:08:06.534Z,81.52
2018-01-06T13:10:40.550Z,81.50
2018-01-06T13:13:12.265Z,80.26
2018-01-06T13:15:43.466Z,80.78
2018-01-06T13:18:14.568Z,81.25
2018-01-06T13:20:44.759Z,81.72
2018-01-06T13:23:15.924Z,81.06
2018-01-06T13:25:47.129Z,81.37
2018-01-06T13:28:17.988Z,82.88
2018-01-06T13:30:48.380Z,86.19
2018-01-06T13:33:21.667Z,84.68
2018-01-06T13:35:52.831Z,82.86
2018-01-06T13:38:22.656Z,82.38
2018-01-06T13:40:52.223Z,82.48
2018-01-06T13:43:22.986Z,85.22
2018-01-06T13:45:55.364Z,85.95
2018-01-06T13:48:26.241Z,88.73
2018-01-06T13:50:57.458Z,89.72
2018-01-06T13:53:27.138Z,90.01
2018-01-06T13:55:57.315Z,85.94
2018-01-06T13:58:27.176Z,86.95
2018-01-06T14:00:58.520Z,86.17
2018-01-06T14:03:31.006Z,87.04
2018-01-06T14:06:02.068Z,87.56
2018-01-06T14:08:32.632Z,89.46
2018-01-06T14:11:03.040Z,89.05
2018-01-06T14:13:33.903Z,89.96
2018-01-06T14:16:03.993Z,89.77
2018-01-06T14:18:34.342Z,89.52
2018-01-06T14:21:04.702Z,86.61
2018-01-06T14:23:37.022Z,88.28
2018-01-06T14:26:06.702Z,89.35
2018-01-06T14:28:36.628Z,90.07
2018-01-06T14:31:08.193Z,91.49
2018-01-06T14:33:40.090Z,92.48
2018-01-06T14:36:11.248Z,92.70
2018-01-06T14:38:42.207Z,92.97
2018-01-06T14:41:18.408Z,92.84
2018-01-06T14:43:51.398Z,92.30
2018-01-06T14:46:21.559Z,91.20
2018-01-06T14:48:52.361Z,90.93
2018-01-06T14:51:23.813Z,89.52
2018-01-06T14:53:54.010Z,88.91
2018-01-06T14:56:26.285Z,90.32
2018-01-06T14:58:55.934Z,90.44
2018-01-06T15:01:26.352Z,88.64
2018-01-06T15:03:56.846Z,89.08
2018-01-06T15:06:27.552Z,89.04
2018-01-06T15:08:59.602Z,91.25
2018-01-06T15:11:29.967Z,92.36
2018-01-06T15:14:00.439Z,93.63
2018-01-06T15:16:31.223Z,94.06
2018-01-06T15:19:04.251Z,93.90
2018-01-06T15:21:35.062Z,93.13
2018-01-06T15:24:05.950Z,91.56
2018-01-06T15:26:37.918Z,92.01
2018-01-06T15:29:08.228Z,93.77
2018-01-06T15:31:39.294Z,96.04
2018-01-06T15:34:10.006Z,96.37
2018-01-06T15:36:41.790Z,93.80
2018-01-06T15:39:13.341Z,89.01
2018-01-06T15:41:44.179Z,89.08
2018-01-06T15:44:16.108Z,93.04
2018-01-06T15:46:47.167Z,96.57
2018-01-06T15:49:18.109Z,97.13
2018-01-06T15:51:48.967Z,97.12
2018-01-06T15:54:18.588Z,96.62
2018-01-06T15:56:49.011Z,96.59
2018-01-06T15:59:19.172Z,97.04
2018-01-06T16:01:49.436Z,97.89
2018-01-06T16:04:19.692Z,98.35
2018-01-06T16:06:49.210Z,98.25
2018-01-06T16:09:20.930Z,98.41
2018-01-06T16:11:51.152Z,97.71
2018-01-06T16:14:21.035Z,97.16
2018-01-06T16:16:51.177Z,97.45
2018-01-06T16:19:22.899Z,98.20
2018-01-06T16:21:56.523Z,98.75
2018-01-06T16:24:26.908Z,99.02
2018-01-06T16:26:56.708Z,98.85
2018-01-06T16:29:26.691Z,98.29
2018-01-06T16:31:56.456Z,98.07
2018-01-06T16:34:26.105Z,97.92
2018-01-06T16:36:56.496Z,98.28
2018-01-06T16:39:26.712Z,99.05
2018-01-06T16:44:18.246Z,99.36
2018-01-06T16:46:49.897Z,99.18
2018-01-06T16:49:22.080Z,99.33
2018-01-06T16:51:51.741Z,100.00
2018-01-06T16:54:22.604Z,100.00
2018-01-06T16:56:53.650Z,100.00
2018-01-06T16:59:23.787Z,100.00
2018-01-06T17:01:53.861Z,100.00
2018-01-06T17:04:25.174Z,100.00
2018-01-06T17:06:55.398Z,100.00
2018-01-06T17:09:25.442Z,100.00
2018-01-06T17:11:55.304Z,100.00
2018-01-06T17:14:25.157Z,100.00
2018-01-06T17:16:54.920Z,100.00
2018-01-06T17:19:26.951Z,100.00
2018-01-06T17:21:59.651Z,100.00
2018-01-06T17:24:31.084Z,100.00
2018-01-06T17:27:02.518Z,100.00
2018-01-06T17:29:32.568Z,100.00
2018-01-06T17:32:04.790Z,100.00
2018-01-06T17:34:34.526Z,100.00
2018-01-06T17:37:05.334Z,100.00
2018-01-06T17:39:37.525Z,100.00
2018-01-06T17:42:09.796Z,100.00
2018-01-06T17:44:40.289Z,100.00
2018-01-06T17:47:11.133Z,100.00
2018-01-06T17:49:43.170Z,100.00
2018-01-06T17:52:16.378Z,100.00
2018-01-06T17:54:47.340Z,100.00
2018-01-06T17:57:17.529Z,100.00
2018-01-06T17:59:49.412Z,100.00
2018-01-06T18:02:20.070Z,100.00
2018-01-06T18:04:49.973Z,100.00
2018-01-06T18:07:22.372Z,100.00
2018-01-06T18:09:52.805Z,100.00
2018-01-06T18:12:23.030Z,100.00
2018-01-06T18:14:52.768Z,99.45
2018-01-06T18:17:24.458Z,98.25
2018-01-06T18:19:55.256Z,96.58
2018-01-06T18:22:28.323Z,97.47
2018-01-06T18:24:58.783Z,97.67
2018-01-06T18:27:30.893Z,98.03
2018-01-06T18:30:01.789Z,96.49
2018-01-06T18:32:33.223Z,96.84
2018-01-06T18:35:12.220Z,97.47
2018-01-06T18:37:45.462Z,98.91
2018-01-06T18:40:17.700Z,100.00
2018-01-06T18:42:48.048Z,100.00
2018-01-06T18:45:22.527Z,97.76
2018-01-06T18:47:55.837Z,93.67
2018-01-06T18:50:31.581Z,95.16
2018-01-06T18:53:06.151Z,93.99
2018-01-06T18:55:38.530Z,95.50
2018-01-06T18:58:12.273Z,92.05
2018-01-06T19:00:44.742Z,94.42
2018-01-06T19:03:15.676Z,93.30
2018-01-06T19:05:46.858Z,91.26
2018-01-06T19:08:17.221Z,90.87
2018-01-06T19:10:49.543Z,89.75
2018-01-06T19:13:19.690Z,89.20
2018-01-06T19:15:50.692Z,89.12
2018-01-06T19:18:21.573Z,89.52
2018-01-06T19:20:51.316Z,90.37
2018-01-06T19:23:21.275Z,89.74
2018-01-06T19:25:51.324Z,90.49
2018-01-06T19:28:21.261Z,91.02
2018-01-06T19:30:53.484Z,90.86
2018-01-06T19:33:24.748Z,91.21
2018-01-06T19:35:59.088Z,91.73
2018-01-06T19:38:29.533Z,92.04
2018-01-06T19:41:00.087Z,96.87
2018-01-06T19:43:31.051Z,96.95
2018-01-06T19:46:04.644Z,98.95
2018-01-06T19:48:37.413Z,100.00
2018-01-06T19:51:09.376Z,100.00
2018-01-06T19:53:40.367Z,100.00
2018-01-06T19:56:11.474Z,100.00
2018-01-06T19:58:41.819Z,100.00
2018-01-06T20:01:14.684Z,100.00
2018-01-06T20:03:45.270Z,100.00
2018-01-06T20:06:16.074Z,100.00
2018-01-06T20:08:46.513Z,100.00
2018-01-06T20:11:16.918Z,100.00
2018-01-06T20:13:49.511Z,100.00
2018-01-06T20:16:20.500Z,100.00
2018-01-06T20:18:51.672Z,100.00
2018-01-06T20:21:21.581Z,100.00
2018-01-06T20:23:55.198Z,100.00
2018-01-06T20:26:26.862Z,100.00
2018-01-06T20:28:58.503Z,100.00
2018-01-06T20:31:28.573Z,100.00
2018-01-06T20:33:59.436Z,100.00
2018-01-06T20:36:31.414Z,100.00
2018-01-06T20:41:58.238Z,100.00
2018-01-06T20:44:31.847Z,100.00
2018-01-06T20:47:04.645Z,100.00
2018-01-06T20:49:38.272Z,100.00
2018-01-06T20:52:08.953Z,100.00
2018-01-06T20:54:41.081Z,100.00
2018-01-06T20:57:13.073Z,100.00
2018-01-06T20:59:44.115Z,100.00
2018-01-06T21:02:16.433Z,100.00
2018-01-06T21:04:49.043Z,100.00
2018-01-06T21:07:20.325Z,100.00
2018-01-06T21:09:53.862Z,100.00
2018-01-06T21:12:25.792Z,100.00
2018-01-06T21:15:00.409Z,100.00
2018-01-06T21:17:33.480Z,100.00
2018-01-06T21:20:07.495Z,100.00
2018-01-06T21:22:40.743Z,100.00
2018-01-06T21:25:14.173Z,100.00
2018-01-06T21:27:45.168Z,100.00
2018-01-06T21:30:17.652Z,100.00
2018-01-06T21:32:50.576Z,100.00
2018-01-06T21:35:26.803Z,100.00
2018-01-06T21:38:03.159Z,100.00
2018-01-06T21:40:42.191Z,100.00
2018-01-06T21:45:56.700Z,99.84
2018-01-06T21:48:31.278Z,100.00
2018-01-06T21:51:01.286Z,95.67
2018-01-06T21:53:34.273Z,94.91
2018-01-06T21:56:07.878Z,97.65
2018-01-06T21:58:39.183Z,96.95
2018-01-06T22:01:09.961Z,97.18
2018-01-06T22:03:40.618Z,96.89
2018-01-06T22:06:10.976Z,96.71
2018-01-06T22:08:40.645Z,97.42
2018-01-06T22:11:12.701Z,95.23
2018-01-06T22:13:48.491Z,95.24
2018-01-06T22:16:18.624Z,92.94
2018-01-06T22:18:49.925Z,92.31
2018-01-06T22:21:21.361Z,93.70
2018-01-06T22:23:51.342Z,93.48
2018-01-06T22:26:21.896Z,94.27
2018-01-06T22:28:52.227Z,94.71
2018-01-06T22:31:22.076Z,94.37
2018-01-06T22:33:51.778Z,95.13
2018-01-06T22:36:22.911Z,95.22
2018-01-06T22:38:52.713Z,93.98
2018-01-06T22:41:26.021Z,95.27
2018-01-06T22:43:57.866Z,96.66
2018-01-06T22:46:29.256Z,97.57
2018-01-06T22:49:00.120Z,96.51
2018-01-06T22:51:43.423Z,98.39
2018-01-06T22:54:24.384Z,97.17
2018-01-06T22:56:56.025Z,97.02
2018-01-06T22:59:27.180Z,96.83
2018-01-06T23:02:01.529Z,96.29
2018-01-06T23:04:32.139Z,95.96
2018-01-06T23:07:02.565Z,97.46
2018-01-06T23:09:36.575Z,97.38
2018-01-06T23:12:08.569Z,97.41
2018-01-06T23:14:42.029Z,98.72
2018-01-06T23:17:14.293Z,97.41
2018-01-06T23:19:47.485Z,96.16
2018-01-06T23:22:20.548Z,96.39
2018-01-06T23:24:54.152Z,94.58
2018-01-06T23:27:24.166Z,94.20
2018-01-06T23:29:57.835Z,94.60
2018-01-06T23:32:29.112Z,94.98
2018-01-06T23:34:59.014Z,95.54
2018-01-06T23:37:29.771Z,95.44
2018-01-06T23:40:00.459Z,95.46
2018-01-06T23:42:30.088Z,95.93
2018-01-06T23:44:59.697Z,95.35
2018-01-06T23:47:29.885Z,93.99
2018-01-06T23:50:00.898Z,94.75
2018-01-06T23:52:31.147Z,93.82
2018-01-06T23:55:04.335Z,93.99
2018-01-06T23:57:34.266Z,94.54
